Time;durP1;ratioP1;P1;durP2;ratioP2;P2;SDS_P1;SDS_P2;PMS_P1;PMS_P2;Temp;Humidity;BMP_temperature;BMP_pressure;BME280_temperature;BME280_humidity;BME280_pressure;Samples;Min_cycle;Max_cycle;Signal;HPM_P1;HPM_P2
2021/04/26 00:00:08;;;;;;;8.73;3.90;;;;;;;3.97;74.19;95970.69;1027343;28;20027;-68
2021/04/26 00:00:39;;;;;;;6.95;3.60;;;;;;;3.96;74.08;95971.72;1027699;28;20491;-69
2021/04/26 00:01:09;;;;;;;8.13;3.90;;;;;;;3.97;74.51;95960.31;1023434;28;20032;-70
2021/04/26 00:01:40;;;;;;;6.68;3.58;;;;;;;3.93;74.30;95963.56;1027870;28;20685;-69
2021/04/26 00:02:10;;;;;;;6.75;3.65;;;;;;;3.90;74.48;95964.78;1031417;28;20042;-69
2021/04/26 00:02:40;;;;;;;8.57;3.97;;;;;;;3.90;74.88;95964.78;1026288;28;20456;-69
2021/04/26 00:03:11;;;;;;;6.05;3.45;;;;;;;3.90;74.78;95959.59;1027785;28;20015;-69
2021/04/26 00:03:41;;;;;;;5.68;3.88;;;;;;;3.85;74.97;95956.84;1023395;29;20019;-69
2021/04/26 00:04:12;;;;;;;8.82;4.00;;;;;;;3.88;75.16;95960.81;1024477;28;20028;-69
2021/04/26 00:04:42;;;;;;;4.68;3.58;;;;;;;3.87;75.09;95965.22;1027716;28;20417;-69
2021/04/26 00:05:14;;;;;;;6.18;3.50;;;;;;;3.86;75.15;95963.63;1026989;28;20392;-69
2021/04/26 00:05:44;;;;;;;7.28;3.72;;;;;;;3.82;75.29;95962.44;1019796;29;20016;-69
2021/04/26 00:06:15;;;;;;;13.60;3.55;;;;;;;3.82;75.34;95965.03;1015763;29;20028;-69
2021/04/26 00:06:45;;;;;;;7.93;4.28;;;;;;;3.80;75.65;95959.28;1023428;29;20031;-69
2021/04/26 00:07:16;;;;;;;6.25;3.83;;;;;;;3.74;75.78;95953.16;1024024;28;20518;-69
2021/04/26 00:07:46;;;;;;;5.88;3.83;;;;;;;3.79;75.61;95965.50;1025178;28;20027;-69
2021/04/26 00:08:16;;;;;;;6.72;4.50;;;;;;;3.79;76.41;95962.91;1027595;28;20022;-69
2021/04/26 00:08:47;;;;;;;6.00;4.05;;;;;;;3.75;76.19;95961.72;1035831;28;20033;-69
2021/04/26 00:09:17;;;;;;;9.38;4.00;;;;;;;3.79;75.95;95962.91;1036800;28;20026;-69
2021/04/26 00:09:48;;;;;;;5.70;3.60;;;;;;;3.71;76.42;95945.78;1040790;28;20060;-69
2021/04/26 00:10:18;;;;;;;7.68;3.50;;;;;;;3.80;75.97;95959.28;1036801;28;20014;-68
2021/04/26 00:10:49;;;;;;;5.82;3.58;;;;;;;3.82;75.88;95959.06;1032956;28;20034;-70
2021/04/26 00:11:20;;;;;;;8.73;4.00;;;;;;;3.70;76.16;95944.22;1027998;29;20031;-69
2021/04/26 00:11:50;;;;;;;7.13;3.47;;;;;;;3.78;76.38;95956.09;1028706;29;20027;-69
2021/04/26 00:12:20;;;;;;;9.15;4.38;;;;;;;3.79;76.13;95952.53;1028889;29;20104;-68
2021/04/26 00:12:51;;;;;;;9.20;3.97;;;;;;;3.76;76.42;95958.13;1032261;28;20031;-67
2021/04/26 00:13:21;;;;;;;13.15;4.53;;;;;;;3.75;76.17;95956.53;1032160;28;20070;-67
2021/04/26 00:13:52;;;;;;;9.70;3.47;;;;;;;3.77;76.48;95946.75;1027158;28;20023;-69
2021/04/26 00:14:22;;;;;;;7.75;3.83;;;;;;;3.77;76.24;95955.31;1024830;28;20038;-68
2021/04/26 00:14:53;;;;;;;6.38;3.85;;;;;;;3.72;76.69;95941.38;1023917;28;20074;-69
2021/04/26 00:15:25;;;;;;;8.00;4.50;;;;;;;3.74;76.62;95947.97;1031446;28;20796;-68
2021/04/26 00:15:55;;;;;;;8.08;3.60;;;;;;;3.73;76.94;95954.16;1027494;28;20131;-68
2021/04/26 00:16:26;;;;;;;8.88;4.63;;;;;;;3.72;76.78;95954.38;1023130;28;20047;-67
2021/04/26 00:16:56;;;;;;;8.75;4.25;;;;;;;3.74;76.88;95952.34;1027080;28;20034;-68
2021/04/26 00:17:27;;;;;;;8.60;4.45;;;;;;;3.73;77.33;95958.56;1019248;29;20046;-69
2021/04/26 00:17:57;;;;;;;8.13;4.97;;;;;;;3.72;77.32;95943.97;1019386;29;20028;-68
2021/04/26 00:18:28;;;;;;;5.53;3.90;;;;;;;3.73;77.34;95948.19;1025815;28;20062;-68
2021/04/26 00:18:59;;;;;;;8.88;4.00;;;;;;;3.72;77.42;95949.16;1023482;28;20031;-70
2021/04/26 00:19:29;;;;;;;8.22;4.34;;;;;;;3.70;77.96;95943.41;1031592;28;20519;-69
2021/04/26 00:20:00;;;;;;;7.45;4.13;;;;;;;3.69;77.96;95947.00;1029847;28;20054;-69
2021/04/26 00:20:30;;;;;;;9.60;4.63;;;;;;;3.68;77.58;95945.44;1027459;28;20436;-70
2021/04/26 00:21:01;;;;;;;8.23;3.67;;;;;;;3.69;77.77;95947.00;1027764;28;20034;-69
2021/04/26 00:21:31;;;;;;;9.20;4.10;;;;;;;3.64;77.92;95936.50;1027356;28;20444;-69
2021/04/26 00:22:02;;;;;;;7.47;4.10;;;;;;;3.70;77.74;95941.63;1030061;28;20522;-68
2021/04/26 00:22:32;;;;;;;7.45;4.22;;;;;;;3.69;77.77;95936.63;1027731;28;20034;-69
2021/04/26 00:23:03;;;;;;;7.10;3.60;;;;;;;3.68;78.22;95941.03;1027276;28;20105;-68
2021/04/26 00:23:33;;;;;;;7.43;3.70;;;;;;;3.59;78.18;95926.75;1023162;28;20063;-68
2021/04/26 00:24:05;;;;;;;8.20;4.32;;;;;;;3.66;78.31;95935.28;1027188;28;20026;-69
2021/04/26 00:24:36;;;;;;;8.46;4.26;;;;;;;3.65;78.38;95935.47;1027310;28;20086;-69
2021/04/26 00:25:07;;;;;;;7.62;3.80;;;;;;;3.63;78.15;95938.28;1030541;28;20117;-68
2021/04/26 00:25:38;;;;;;;9.88;4.70;;;;;;;3.65;78.47;95935.47;1022745;29;20053;-69
2021/04/26 00:26:08;;;;;;;9.20;4.43;;;;;;;3.65;78.28;95930.28;1019287;29;20032;-69
2021/04/26 00:26:39;;;;;;;7.13;3.80;;;;;;;3.56;78.44;95921.22;1019649;29;20124;-68
2021/04/26 00:27:09;;;;;;;8.05;3.67;;;;;;;3.64;78.29;95933.88;1011214;29;20028;-68
2021/04/26 00:27:40;;;;;;;9.95;3.80;;;;;;;3.63;78.68;95927.13;1019896;29;20035;-67
2021/04/26 00:28:10;;;;;;;6.32;3.95;;;;;;;3.64;78.45;95928.69;1019258;29;20039;-69
2021/04/26 00:28:41;;;;;;;6.13;3.63;;;;;;;3.61;78.79;95923.94;1017359;29;20035;-69
2021/04/26 00:29:11;;;;;;;5.75;3.72;;;;;;;3.61;79.10;95924.72;1023564;29;20505;-69
2021/04/26 00:29:42;;;;;;;6.07;4.03;;;;;;;3.59;79.43;95926.75;1023324;28;20039;-68
2021/04/26 00:30:14;;;;;;;7.15;4.15;;;;;;;3.58;79.11;95929.56;1026867;28;20030;-69
2021/04/26 00:30:45;;;;;;;7.66;4.46;;;;;;;3.59;79.70;95920.75;1035736;28;20059;-69
2021/04/26 00:31:15;;;;;;;6.03;4.00;;;;;;;3.57;79.46;95915.00;1035381;28;20026;-68
2021/04/26 00:31:46;;;;;;;7.60;4.07;;;;;;;3.53;79.18;95915.44;1031734;28;20025;-68
2021/04/26 00:32:16;;;;;;;8.30;3.88;;;;;;;3.54;79.42;95917.00;1030517;28;20118;-69
2021/04/26 00:32:47;;;;;;;6.22;4.00;;;;;;;3.51;79.68;95914.03;1027375;28;20034;-69
2021/04/26 00:33:17;;;;;;;8.45;4.20;;;;;;;3.50;79.98;95913.25;1023610;28;20079;-68
2021/04/26 00:33:48;;;;;;;5.18;3.90;;;;;;;3.49;79.76;95914.28;1028694;28;20026;-69
2021/04/26 00:34:18;;;;;;;8.32;4.22;;;;;;;3.47;79.75;95908.50;1027182;28;20038;-68
2021/04/26 00:34:48;;;;;;;6.93;3.85;;;;;;;3.47;79.99;95908.50;1027725;28;20067;-68
2021/04/26 00:35:19;;;;;;;7.47;4.25;;;;;;;3.39;80.04;95895.00;1029805;28;20427;-68
2021/04/26 00:35:49;;;;;;;7.72;4.55;;;;;;;3.47;80.35;95910.28;1031462;28;20117;-69
2021/04/26 00:36:20;;;;;;;6.60;4.32;;;;;;;3.46;80.23;95906.91;1030948;28;20029;-69
2021/04/26 00:36:51;;;;;;;8.25;4.20;;;;;;;3.45;80.41;95904.50;1035198;28;20030;-69
2021/04/26 00:37:21;;;;;;;9.52;4.63;;;;;;;3.45;80.27;95907.09;1035231;28;20026;-68
2021/04/26 00:37:52;;;;;;;7.57;3.83;;;;;;;3.42;80.30;95905.75;1031258;28;20113;-68
2021/04/26 00:38:22;;;;;;;6.10;3.67;;;;;;;3.44;80.57;95903.72;1031110;28;20041;-68
2021/04/26 00:38:53;;;;;;;10.20;4.68;;;;;;;3.44;80.32;95901.13;1026999;28;20023;-68
2021/04/26 00:39:23;;;;;;;6.35;4.55;;;;;;;3.47;80.38;95903.31;1027514;28;20058;-69
2021/04/26 00:39:54;;;;;;;6.60;3.80;;;;;;;3.48;80.32;95904.88;1023630;29;20027;-68
2021/04/26 00:40:24;;;;;;;7.53;4.47;;;;;;;3.40;80.28;95892.19;1018292;29;20028;-68
2021/04/26 00:40:55;;;;;;;7.78;3.97;;;;;;;3.47;80.64;95895.53;1023317;29;20184;-69
2021/04/26 00:41:25;;;;;;;9.20;4.25;;;;;;;3.47;80.64;95898.13;1020065;29;20490;-69
2021/04/26 00:41:55;;;;;;;5.68;3.92;;;;;;;3.47;80.40;95900.72;1023361;29;20406;-70
2021/04/26 00:42:26;;;;;;;5.93;3.90;;;;;;;3.48;80.51;95894.50;1022522;29;20030;-69
2021/04/26 00:42:56;;;;;;;7.18;4.30;;;;;;;3.46;80.21;95899.13;1023670;28;20088;-69
2021/04/26 00:43:27;;;;;;;8.95;4.35;;;;;;;3.48;80.49;95897.09;1023540;29;20035;-69
2021/04/26 00:43:57;;;;;;;7.15;4.53;;;;;;;3.47;80.49;95899.91;1023331;28;20523;-68
2021/04/26 00:44:28;;;;;;;8.52;4.30;;;;;;;3.46;80.74;95900.94;1027510;28;20031;-67
2021/04/26 00:44:59;;;;;;;8.50;4.05;;;;;;;3.44;80.77;95898.53;1027367;28;20042;-68
2021/04/26 00:45:29;;;;;;;6.57;4.07;;;;;;;3.45;81.21;95900.13;1030743;28;20112;-68
2021/04/26 00:45:59;;;;;;;9.93;4.53;;;;;;;3.45;81.26;95897.53;1031618;28;20026;-68
2021/04/26 00:46:30;;;;;;;8.98;4.45;;;;;;;3.44;80.85;95898.53;1031404;28;20030;-68
2021/04/26 00:47:00;;;;;;;10.35;4.40;;;;;;;3.41;81.14;95891.19;1031602;28;20030;-69
2021/04/26 00:47:31;;;;;;;7.30;4.22;;;;;;;3.33;81.07;95875.91;1023683;28;20039;-69
2021/04/26 00:48:01;;;;;;;6.95;4.50;;;;;;;3.38;81.19;95883.81;1027462;28;20026;-68
2021/04/26 00:48:32;;;;;;;6.95;4.20;;;;;;;3.41;81.12;95892.97;1031686;28;20033;-68
2021/04/26 00:49:02;;;;;;;7.40;4.35;;;;;;;3.41;81.14;95893.78;1028693;28;20042;-68
2021/04/26 00:49:33;;;;;;;10.30;4.43;;;;;;;3.42;81.03;95889.38;1027590;28;20038;-68
2021/04/26 00:50:08;;;;;;;8.23;5.10;;;;;;;3.37;81.54;95887.44;1023408;29;20027;-68
2021/04/26 00:50:40;;;;;;;9.50;4.80;;;;;;;3.38;81.61;95886.41;1028100;28;20093;-69
2021/04/26 00:51:10;;;;;;;7.94;4.46;;;;;;;3.39;81.37;95885.44;1032692;28;20058;-68
2021/04/26 00:51:41;;;;;;;7.78;4.72;;;;;;;3.38;81.44;95883.81;1035503;28;20018;-68
2021/04/26 00:52:11;;;;;;;10.30;4.35;;;;;;;3.34;81.47;95881.88;1026536;28;20742;-66
2021/04/26 00:52:42;;;;;;;6.68;4.38;;;;;;;3.37;81.35;95886.66;1027450;28;20035;-69
2021/04/26 00:53:12;;;;;;;7.20;4.63;;;;;;;3.37;81.56;95887.44;1023395;29;20026;-68
2021/04/26 00:53:43;;;;;;;11.50;4.38;;;;;;;3.36;81.67;95885.84;1023907;28;20015;-69
2021/04/26 00:54:13;;;;;;;7.55;4.40;;;;;;;3.34;81.56;95887.84;1015101;29;20060;-68
2021/04/26 00:54:44;;;;;;;10.30;4.88;;;;;;;3.36;81.74;95887.66;1012147;29;20029;-68
2021/04/26 00:55:14;;;;;;;7.60;4.07;;;;;;;3.31;81.72;95883.88;1023086;29;20034;-68
2021/04/26 00:55:45;;;;;;;9.45;4.97;;;;;;;3.31;81.61;95885.69;1024760;28;20019;-69
2021/04/26 00:56:15;;;;;;;7.93;4.75;;;;;;;3.31;81.88;95885.69;1023538;29;20105;-69
2021/04/26 00:56:46;;;;;;;9.60;4.40;;;;;;;3.30;81.96;95887.50;1011840;29;20028;-69
2021/04/26 00:57:16;;;;;;;6.50;4.32;;;;;;;3.21;81.95;95875.00;1004015;29;20121;-68
2021/04/26 00:57:47;;;;;;;9.65;4.45;;;;;;;3.27;82.35;95881.94;1015632;29;20023;-68
2021/04/26 00:58:17;;;;;;;8.57;4.10;;;;;;;3.26;82.28;95883.75;1015791;29;20028;-69
2021/04/26 00:58:48;;;;;;;8.95;4.07;;;;;;;3.24;82.67;95877.97;1023553;28;20042;-68
2021/04/26 00:59:18;;;;;;;11.77;4.72;;;;;;;3.21;82.51;95878.38;1023060;29;20517;-69
2021/04/26 00:59:49;;;;;;;7.63;4.78;;;;;;;3.20;82.58;95871.63;1015495;29;20028;-69
2021/04/26 01:00:20;;;;;;;7.20;4.15;;;;;;;3.16;82.41;95861.91;1027431;28;20559;-69
2021/04/26 01:00:51;;;;;;;7.66;4.44;;;;;;;3.22;82.16;95877.41;1027366;28;20042;-68
2021/04/26 01:01:21;;;;;;;7.10;4.56;;;;;;;3.22;82.22;95877.41;1027534;28;20030;-68
2021/04/26 01:01:52;;;;;;;12.50;4.50;;;;;;;3.24;82.46;95872.00;1027296;28;20033;-68
2021/04/26 01:02:24;;;;;;;7.78;4.72;;;;;;;3.22;82.65;95881.75;1019325;28;20031;-69
2021/04/26 01:02:54;;;;;;;8.20;4.58;;;;;;;3.23;82.77;95878.97;1019726;29;20031;-69
2021/04/26 01:03:25;;;;;;;7.20;4.43;;;;;;;3.21;82.81;95877.59;1019836;29;20030;-69
2021/04/26 01:03:55;;;;;;;11.00;5.05;;;;;;;3.18;82.50;95868.44;1023020;29;20082;-68
2021/04/26 01:04:26;;;;;;;8.75;4.43;;;;;;;3.21;82.56;95877.59;1022148;28;20034;-68
2021/04/26 01:04:57;;;;;;;6.97;4.85;;;;;;;3.20;82.24;95869.03;1027660;28;20027;-69
2021/04/26 01:05:29;;;;;;;10.63;4.55;;;;;;;3.20;82.36;95873.44;1022631;29;20036;-67
2021/04/26 01:05:59;;;;;;;8.14;3.42;;;;;;;3.22;82.05;95869.63;1027134;28;20547;-68
2021/04/26 01:06:30;;;;;;;8.38;4.20;;;;;;;3.20;82.44;95860.47;1023427;28;20035;-68
2021/04/26 01:07:00;;;;;;;10.77;4.50;;;;;;;3.21;82.34;95872.41;1027708;28;20037;-68
2021/04/26 01:07:34;;;;;;;13.43;5.13;;;;;;;3.18;82.15;95868.44;1030698;28;20038;-68
2021/04/26 01:08:04;;;;;;;8.14;4.48;;;;;;;3.16;82.24;95867.09;1023209;29;20034;-68
2021/04/26 01:08:35;;;;;;;7.57;4.50;;;;;;;3.15;82.69;95857.69;1019595;29;20041;-68
2021/04/26 01:09:05;;;;;;;10.90;4.28;;;;;;;3.19;82.35;95858.88;1015915;29;20140;-68
2021/04/26 01:09:36;;;;;;;8.68;4.45;;;;;;;3.20;82.28;95865.66;1018808;29;20027;-68
2021/04/26 01:10:08;;;;;;;8.85;4.63;;;;;;;3.19;82.01;95854.50;1023646;28;20036;-68
2021/04/26 01:10:38;;;;;;;10.08;4.44;;;;;;;3.19;81.86;95854.50;1019656;29;20031;-68
2021/04/26 01:11:09;;;;;;;11.18;4.82;;;;;;;3.21;82.03;95851.66;1014910;29;20486;-68
2021/04/26 01:12:02;;;;;;;7.63;4.13;;;;;;;3.18;81.70;95858.06;1015759;29;20103;-68
2021/04/26 01:12:38;;;;;;;7.54;4.14;;;;;;;3.20;82.00;95860.47;1022951;29;20035;-64
2021/04/26 01:13:24;;;;;;;8.24;4.40;;;;;;;3.20;81.93;95855.28;1023444;29;20408;-68
2021/04/26 01:14:01;;;;;;;8.06;4.40;;;;;;;3.18;82.25;95852.09;1020694;29;20028;-68
2021/04/26 01:15:10;;;;;;;9.56;4.16;;;;;;;3.17;81.86;95853.91;1034832;28;20040;-69
2021/04/26 01:16:02;;;;;;;7.92;4.98;;;;;;;3.13;82.19;95842.38;1030412;28;20033;-68
2021/04/26 01:17:02;;;;;;;8.40;4.26;;;;;;;3.14;81.89;95856.13;1019206;29;20037;-68
2021/04/26 01:17:33;;;;;;;6.53;4.25;;;;;;;3.12;82.20;95851.16;1031332;28;20440;-68
2021/04/26 01:18:44;;;;;;;9.38;4.00;;;;;;;3.13;81.85;95839.00;1029941;28;20035;-68
2021/04/26 01:19:42;;;;;;;9.48;4.68;;;;;;;3.12;81.97;95837.38;1025607;28;20114;-68
2021/04/26 01:20:37;;;;;;;10.06;4.54;;;;;;;3.07;82.59;95833.63;1033547;28;20549;-68
2021/04/26 01:21:28;;;;;;;12.02;4.78;;;;;;;3.04;82.76;95834.06;1035579;28;20022;-67
2021/04/26 01:22:13;;;;;;;9.38;4.30;;;;;;;3.02;82.72;95827.53;1023748;28;20469;-68
2021/04/26 01:23:09;;;;;;;12.02;4.34;;;;;;;3.01;82.75;95831.88;1023356;29;20031;-69
2021/04/26 01:24:08;;;;;;;6.34;4.04;;;;;;;3.03;82.38;95823.91;1024054;28;20034;-68
2021/04/26 01:25:01;;;;;;;7.36;5.04;;;;;;;3.03;82.46;95826.50;1027034;28;20416;-67
2021/04/26 01:25:32;;;;;;;6.60;4.04;;;;;;;2.90;82.75;95814.44;1019090;29;20030;-68
2021/04/26 01:26:03;;;;;;;9.68;4.43;;;;;;;2.98;82.89;95823.75;1027316;28;20117;-68
2021/04/26 01:26:42;;;;;;;8.02;4.28;;;;;;;2.94;82.83;95828.56;1023363;28;20027;-68
2021/04/26 01:27:30;;;;;;;8.88;4.32;;;;;;;2.94;83.14;95825.19;1027110;28;20105;-69
2021/04/26 01:28:23;;;;;;;8.86;4.54;;;;;;;2.94;83.11;95831.16;1024052;28;20030;-69
2021/04/26 01:29:08;;;;;;;6.56;4.52;;;;;;;2.89;83.20;95817.25;1020469;29;20030;-69
2021/04/26 01:30:05;;;;;;;7.72;4.50;;;;;;;2.93;83.34;95829.56;1023349;29;20066;-68
2021/04/26 01:30:53;;;;;;;9.60;4.46;;;;;;;2.93;82.95;95834.75;1020697;29;20016;-69
2021/04/26 01:31:51;;;;;;;7.28;4.70;;;;;;;2.90;82.75;95830.00;1022212;29;20512;-69
2021/04/26 01:32:27;;;;;;;11.88;5.08;;;;;;;2.91;83.39;95830.78;1024983;28;20018;-68
2021/04/26 01:33:10;;;;;;;9.54;4.86;;;;;;;2.88;83.39;95826.81;1027031;28;20019;-68
2021/04/26 01:33:43;;;;;;;10.20;4.30;;;;;;;2.90;82.91;95827.41;1022537;29;20027;-68
2021/04/26 01:34:13;;;;;;;11.88;4.70;;;;;;;2.88;83.35;95826.81;1024606;28;20019;-68
2021/04/26 01:34:44;;;;;;;10.20;4.75;;;;;;;2.84;83.26;95823.06;1023521;29;20088;-68
2021/04/26 01:35:16;;;;;;;8.04;4.60;;;;;;;2.86;83.38;95826.25;1014192;29;20516;-67
2021/04/26 01:35:46;;;;;;;10.56;4.60;;;;;;;2.86;83.31;95830.63;1019036;29;20019;-68
2021/04/26 01:36:19;;;;;;;7.63;4.57;;;;;;;2.85;83.35;95827.25;1019613;29;20022;-67
2021/04/26 01:36:49;;;;;;;10.66;5.48;;;;;;;2.75;83.36;95816.53;1015182;29;20386;-68
2021/04/26 01:37:20;;;;;;;10.07;4.63;;;;;;;2.82;83.55;95830.28;1018895;29;20022;-68
2021/04/26 01:37:52;;;;;;;10.50;5.03;;;;;;;2.80;83.81;95829.69;1019202;29;20437;-69
2021/04/26 01:38:32;;;;;;;11.28;4.60;;;;;;;2.78;83.87;95824.72;1023597;28;20019;-68
2021/04/26 01:39:03;;;;;;;9.43;4.93;;;;;;;2.79;83.54;95830.69;1026733;28;20027;-68
2021/04/26 01:39:33;;;;;;;5.13;4.22;;;;;;;2.80;83.74;95832.28;1023186;29;20049;-68
2021/04/26 01:40:05;;;;;;;7.53;4.50;;;;;;;2.78;83.81;95827.31;1019579;28;20075;-68
2021/04/26 01:40:37;;;;;;;6.76;4.26;;;;;;;2.78;83.62;95826.50;1019331;29;20030;-68
2021/04/26 01:41:08;;;;;;;7.92;4.78;;;;;;;2.79;83.88;95822.91;1018995;29;20400;-67
2021/04/26 01:41:39;;;;;;;10.63;5.18;;;;;;;2.77;83.35;95824.91;1023498;29;20014;-68
2021/04/26 01:42:11;;;;;;;11.13;5.63;;;;;;;2.72;83.62;95812.59;1012082;29;20017;-68
2021/04/26 01:42:43;;;;;;;7.04;4.54;;;;;;;2.75;83.68;95816.53;1006765;29;20041;-68
2021/04/26 01:43:13;;;;;;;9.42;5.20;;;;;;;2.77;83.17;95817.94;1013123;29;20506;-68
2021/04/26 01:43:44;;;;;;;12.00;4.80;;;;;;;2.76;83.42;95818.94;1021133;28;20089;-64
2021/04/26 01:44:15;;;;;;;9.50;5.30;;;;;;;2.75;83.77;95811.38;1022861;28;20022;-68
2021/04/26 01:44:45;;;;;;;9.10;4.90;;;;;;;2.76;83.29;95812.97;1018980;29;20497;-69
2021/04/26 01:45:16;;;;;;;8.00;4.93;;;;;;;2.76;83.49;95798.22;1017814;29;20019;-68
2021/04/26 01:45:47;;;;;;;6.57;4.45;;;;;;;2.76;83.34;95805.19;1023031;28;20027;-68
2021/04/26 01:46:17;;;;;;;10.00;5.00;;;;;;;2.75;83.41;95807.00;1027123;28;20026;-68
2021/04/26 01:46:47;;;;;;;8.93;4.97;;;;;;;2.74;83.43;95800.22;1018805;29;20012;-66
2021/04/26 01:47:18;;;;;;;7.22;4.55;;;;;;;2.76;83.15;95807.78;1014443;29;20035;-68
2021/04/26 01:47:50;;;;;;;9.80;5.20;;;;;;;2.75;83.38;95813.97;1014515;29;20024;-67
2021/04/26 01:48:21;;;;;;;8.22;4.96;;;;;;;2.75;83.81;95811.38;1015158;29;20075;-68
2021/04/26 01:48:52;;;;;;;8.50;4.85;;;;;;;2.63;83.49;95800.13;1014543;29;20585;-69
2021/04/26 01:49:22;;;;;;;9.68;5.22;;;;;;;2.71;83.81;95810.22;1022703;29;20023;-68
2021/04/26 01:49:53;;;;;;;6.63;4.40;;;;;;;2.69;83.67;95809.66;1019179;29;20107;-68
2021/04/26 01:50:23;;;;;;;7.65;4.57;;;;;;;2.60;84.02;95796.16;1022969;28;20102;-68
2021/04/26 01:50:55;;;;;;;7.72;4.63;;;;;;;2.67;84.10;95814.22;1017952;29;20142;-68
2021/04/26 01:51:26;;;;;;;9.44;4.78;;;;;;;2.65;84.13;95811.03;1022881;29;20031;-68
2021/04/26 01:51:56;;;;;;;8.15;4.53;;;;;;;2.66;84.25;95810.06;1015006;29;20433;-68
2021/04/26 01:52:27;;;;;;;11.20;4.72;;;;;;;2.66;84.40;95810.06;1022851;28;20023;-68
2021/04/26 01:52:57;;;;;;;10.88;5.22;;;;;;;2.63;84.57;95808.69;1022846;29;20062;-68
2021/04/26 01:53:28;;;;;;;8.63;4.75;;;;;;;2.65;84.37;95813.63;1022886;28;20096;-67
2021/04/26 01:53:58;;;;;;;10.82;5.25;;;;;;;2.62;84.50;95804.50;1019850;29;20012;-68
2021/04/26 01:54:29;;;;;;;8.40;4.70;;;;;;;2.62;84.60;95811.50;1022430;28;20061;-68
2021/04/26 01:55:00;;;;;;;11.45;4.78;;;;;;;2.61;84.79;95810.69;1022850;29;20054;-68
2021/04/26 01:55:30;;;;;;;6.78;4.97;;;;;;;2.56;84.46;95802.75;1022199;28;20030;-68
2021/04/26 01:56:09;;;;;;;7.57;4.38;;;;;;;2.55;84.72;95801.19;1017643;29;20052;-68
2021/04/26 01:56:40;;;;;;;6.96;4.40;;;;;;;2.54;85.12;95805.53;1016599;29;20020;-68
2021/04/26 01:57:10;;;;;;;11.15;5.15;;;;;;;2.54;85.01;95804.75;1022734;29;20523;-67
2021/04/26 01:57:41;;;;;;;10.55;4.35;;;;;;;2.53;85.17;95803.16;1027040;28;20058;-68
2021/04/26 01:58:13;;;;;;;10.10;4.98;;;;;;;2.50;85.16;95790.63;1031149;28;20022;-67
2021/04/26 01:58:46;;;;;;;8.62;4.46;;;;;;;2.50;84.93;95791.44;1026003;28;20026;-68
2021/04/26 01:59:17;;;;;;;8.08;5.00;;;;;;;2.49;85.17;95800.22;1022663;28;20011;-68
2021/04/26 01:59:47;;;;;;;8.90;4.70;;;;;;;2.48;84.91;95790.88;1022652;29;20497;-66
2021/04/26 02:00:23;;;;;;;8.85;4.95;;;;;;;2.50;84.92;95788.84;1018898;29;20030;-68
2021/04/26 02:00:54;;;;;;;8.84;4.98;;;;;;;2.42;85.25;95783.94;1015185;29;20096;-68
2021/04/26 02:01:24;;;;;;;11.76;5.12;;;;;;;2.47;85.57;95789.25;1015151;29;20413;-68
2021/04/26 02:01:55;;;;;;;7.45;4.57;;;;;;;2.46;85.60;95790.28;1015005;29;20024;-68
2021/04/26 02:02:26;;;;;;;9.72;5.50;;;;;;;2.44;85.75;95794.06;1023104;28;20087;-68
2021/04/26 02:02:56;;;;;;;6.13;4.68;;;;;;;2.40;85.98;95785.94;1026147;28;20066;-68
2021/04/26 02:03:27;;;;;;;11.73;5.45;;;;;;;2.43;86.24;95797.66;1027137;28;20065;-67
2021/04/26 02:04:01;;;;;;;6.95;4.75;;;;;;;2.39;85.92;95791.31;1011001;29;20058;-66
2021/04/26 02:04:32;;;;;;;9.90;5.18;;;;;;;2.33;85.80;95782.59;1017987;29;20032;-68
2021/04/26 02:05:04;;;;;;;10.16;5.18;;;;;;;2.38;85.87;95795.69;1026457;28;20089;-66
2021/04/26 02:05:35;;;;;;;9.34;4.80;;;;;;;2.38;85.87;95797.50;1030606;28;20010;-68
2021/04/26 02:06:05;;;;;;;9.93;5.53;;;;;;;2.31;86.27;95784.59;1022531;28;20023;-68
2021/04/26 02:06:36;;;;;;;10.75;5.28;;;;;;;2.27;86.66;95786.81;1018836;29;20514;-68
2021/04/26 02:07:06;;;;;;;9.38;5.35;;;;;;;2.34;86.57;95802.28;1026874;28;20015;-68
2021/04/26 02:07:37;;;;;;;8.43;5.30;;;;;;;2.33;86.34;95803.31;1025497;28;20042;-68
2021/04/26 02:08:08;;;;;;;6.96;4.72;;;;;;;2.32;86.79;95797.34;1018856;29;20099;-66
2021/04/26 02:08:38;;;;;;;7.45;4.90;;;;;;;2.30;86.75;95799.31;1022828;29;20034;-68
2021/04/26 02:09:09;;;;;;;10.48;5.50;;;;;;;2.26;86.82;95799.97;1018813;29;20008;-67
2021/04/26 02:09:39;;;;;;;11.45;5.13;;;;;;;2.30;86.66;95798.53;1022681;29;20027;-68
2021/04/26 02:10:11;;;;;;;9.00;5.10;;;;;;;2.23;86.65;95798.56;1018961;29;20028;-68
2021/04/26 02:10:41;;;;;;;13.94;7.66;;;;;;;2.29;86.72;95802.94;1007249;29;20065;-68
2021/04/26 02:11:12;;;;;;;10.52;5.15;;;;;;;2.25;86.86;95801.75;1014329;29;20060;-68
2021/04/26 02:11:43;;;;;;;8.38;4.95;;;;;;;2.25;86.69;95799.19;1023199;29;20511;-68
2021/04/26 02:12:14;;;;;;;13.70;5.13;;;;;;;2.19;87.28;95791.44;1018680;29;20723;-68
2021/04/26 02:12:44;;;;;;;12.02;5.60;;;;;;;2.23;87.25;95802.97;1018339;29;20037;-66
2021/04/26 02:13:17;;;;;;;12.95;5.30;;;;;;;2.22;87.28;95801.38;1011496;29;20585;-68
2021/04/26 02:13:48;;;;;;;12.26;5.30;;;;;;;2.13;87.39;95793.06;1015344;29;20066;-67
2021/04/26 02:14:18;;;;;;;8.70;5.20;;;;;;;2.17;87.82;95801.19;1027026;28;20034;-67
2021/04/26 02:14:49;;;;;;;8.88;5.10;;;;;;;2.11;87.62;95789.88;1022817;28;20051;-68
2021/04/26 02:15:22;;;;;;;7.95;4.80;;;;;;;2.17;87.41;95798.63;1018063;29;20024;-67
2021/04/26 02:15:54;;;;;;;12.38;5.10;;;;;;;2.15;87.82;95800.59;1011275;29;20032;-68
2021/04/26 02:16:24;;;;;;;11.14;5.12;;;;;;;2.12;87.44;95800.03;1017501;29;20035;-68
2021/04/26 02:16:55;;;;;;;11.55;5.32;;;;;;;2.13;87.53;95806.78;1026517;28;20038;-68
2021/04/26 02:17:25;;;;;;;12.05;5.25;;;;;;;2.12;87.58;95797.44;1022839;29;20035;-68
2021/04/26 02:17:56;;;;;;;8.73;4.63;;;;;;;2.10;87.85;95799.44;1014984;29;20098;-68
2021/04/26 02:18:26;;;;;;;8.52;5.03;;;;;;;2.05;88.22;95794.09;1018568;29;20067;-68
2021/04/26 02:18:57;;;;;;;10.27;5.22;;;;;;;2.08;88.20;95804.06;1026691;28;20034;-68
2021/04/26 02:19:28;;;;;;;9.07;4.93;;;;;;;2.08;88.43;95801.47;1018872;29;20036;-66
2021/04/26 02:19:58;;;;;;;9.56;4.48;;;;;;;2.06;88.26;95807.84;1019939;28;20043;-68
2021/04/26 02:20:29;;;;;;;8.70;5.20;;;;;;;2.07;88.01;95805.03;1030507;28;20049;-68
2021/04/26 02:20:59;;;;;;;10.70;5.57;;;;;;;2.04;88.70;95800.25;1027015;28;20023;-68
2021/04/26 02:21:30;;;;;;;11.90;5.35;;;;;;;2.05;88.37;95807.06;1023033;29;20038;-68
2021/04/26 02:22:00;;;;;;;10.90;5.45;;;;;;;2.04;88.45;95802.84;1021813;29;20094;-67
2021/04/26 02:22:31;;;;;;;11.40;4.78;;;;;;;2.04;88.87;95802.06;1019257;29;20445;-68
2021/04/26 02:23:01;;;;;;;11.45;5.57;;;;;;;2.01;89.00;95805.88;1018889;29;20027;-68
2021/04/26 02:23:32;;;;;;;13.40;5.50;;;;;;;2.01;89.08;95805.88;1028707;28;20034;-68
2021/04/26 02:24:02;;;;;;;8.63;5.45;;;;;;;1.99;89.18;95802.69;1031203;28;20089;-68
2021/04/26 02:24:33;;;;;;;8.95;5.38;;;;;;;1.99;89.45;95807.88;1026780;28;20030;-68
2021/04/26 02:25:04;;;;;;;10.60;5.40;;;;;;;1.98;89.37;95806.28;1025446;28;20035;-68
2021/04/26 02:25:35;;;;;;;8.02;5.62;;;;;;;1.97;88.89;95809.06;1027230;28;20045;-68
2021/04/26 02:26:05;;;;;;;11.50;5.05;;;;;;;1.93;89.17;95808.69;1034982;28;20041;-68
2021/04/26 02:26:35;;;;;;;11.65;5.30;;;;;;;1.92;89.32;95806.31;1031068;28;20062;-68
2021/04/26 02:27:07;;;;;;;9.45;5.00;;;;;;;1.92;89.72;95807.09;1029852;28;20027;-68
2021/04/26 02:27:38;;;;;;;11.54;5.90;;;;;;;1.89;89.43;95802.34;1026497;28;20027;-68
2021/04/26 02:28:08;;;;;;;11.13;5.43;;;;;;;1.87;89.93;95812.88;1019231;29;20601;-67
2021/04/26 02:28:39;;;;;;;12.20;5.50;;;;;;;1.86;90.29;95811.31;1024796;28;20027;-68
2021/04/26 02:29:09;;;;;;;10.85;5.57;;;;;;;1.85;90.06;95806.34;1026317;28;20065;-68
2021/04/26 02:29:40;;;;;;;9.00;5.55;;;;;;;1.78;90.02;95803.00;1031098;28;20022;-69
2021/04/26 02:30:11;;;;;;;9.98;5.45;;;;;;;1.85;89.92;95811.53;1025803;28;20623;-68
2021/04/26 02:30:41;;;;;;;9.95;6.10;;;;;;;1.84;89.98;95812.50;1019287;29;20028;-68
2021/04/26 02:31:15;;;;;;;7.82;5.15;;;;;;;1.83;90.16;95814.31;1018557;29;20446;-68
2021/04/26 02:31:49;;;;;;;10.64;5.76;;;;;;;1.82;90.21;95817.09;1019697;29;20568;-68
2021/04/26 02:32:30;;;;;;;7.44;5.04;;;;;;;1.64;90.63;95784.13;1020269;29;20071;-68
2021/04/26 02:33:14;;;;;;;9.24;5.46;;;;;;;1.79;90.62;95815.72;1015000;29;20664;-68
2021/04/26 02:33:55;;;;;;;8.76;4.70;;;;;;;1.76;90.53;95808.38;1011032;29;20043;-68
2021/04/26 02:34:36;;;;;;;8.15;5.07;;;;;;;1.78;90.75;95815.94;1015277;29;20024;-68
2021/04/26 02:35:06;;;;;;;11.72;5.18;;;;;;;1.77;90.73;95816.91;1014840;29;20110;-68